Cole Camp, MO

3:40 AM CDT on July 26, 2014 (GMT -0500)
cole camp Lincoln (KMOCOLEC2) Elev 905 ft | 38.40 °N, 93.20 °W | Change Station

Current weather conditions updated 10 minutes ago

Haze
Haze
76.8 °F
Feels Like 78 °F
N
0.0
Wind Variable Wind from WSW
Gusts 0.0 mph

Today is forecast to be Much Warmer than yesterday.

Today
High -- | Low -- °F
--% Chance of Precip.
Yesterday
High -- | Low -- °F
Precip. -- in
6:09 AM 8:28 PM
Waning Crescent, 0% visible
Pressure 29.81 in
Visibility 6.0 miles
Clouds Clear
Heat Index 78 °F
Dew Point 72 °F
Humidity 85%
Rainfall 0.00 in
Snow Depth Not available.
UV 0 out of 12
Pollen 6.60 out of 12
Air Quality Not available.
Flu Activity Not available.
METAR KDMO 260753Z AUTO 22014KT 6SM HZ CLR 27/21 A2984 RMK AO2 SLP095 T02670211

More Conditions Fewer Conditions

Pressure 29.81 in
Visibility 6.0 miles
Clouds Clear
Heat Index 78 °F
Dew Point 72 °F
Humidity 85%
Rainfall 0.00 in
Snow Depth Not available.
UV 0 out of 12
Pollen 6.60 out of 12
Air Quality Not available.
Flu Activity Not available.
METAR KDMO 260753Z AUTO 22014KT 6SM HZ CLR 27/21 A2984 RMK AO2 SLP095 T02670211

More Conditions Fewer Conditions

10-Day Weather Forecast

Almanac

Astronomy

Jul. 26, 2014 Rise Set
Actual Time 6:09 AM CDT 8:28 PM CDT
Civil Twilight 5:39 AM CDT 8:58 PM CDT
Nautical Twilight 5:02 AM CDT 9:35 PM CDT
Astronomical Twilight 4:22 AM CDT 10:15 PM CDT
Moon 6:02 AM CDT 8:04 PM CDT
Length of Visible Light 15h 18m
Length of Day
14h 18m
Tomorrow will be 1m 42s shorter.
Waning Crescent, 0% of the Moon is Illuminated
Today
Waning Crescent
Jul 26
New
Aug 3
First Quarter
Aug 10
Full
Aug 17
Last Quarter

Today's Extremes

State Highs State Lows

Community

WunderPhotos

Upload Photos

1,737,529 photos uploaded!

Nearby

Snow Depth

Station Depth Elevation
No new snow has been reported.

Earthquake Activity

City Distance Mag. Time & Date
No recent earthquake activity has been reported nearby.
Minimum magnitude displayed is 2.5.

Coastal Water Temperatures

Place Temperature
No Stations Reporting

Nearby Weather Stations

Station Location Temp. Heat Index Dew Point Humidity Wind Precip. Elev Updated Type
cole camp Lincoln, Cole Camp, MO 76.8 °F 78 °F 72 °F 85% WSW  at  0.0 mph 0.00 in / hr 905 ft 3:30 AM CDT Normal
Sedalia, MO 78.6 °F 82 °F 72 °F 82% SW  at  8.0 mph 0.00 in / hr 837 ft 3:40 AM CDT Rapid Fire
Windsor NW, Windsor, MO 76.8 °F 78 °F 71 °F 83% SSW  at  0.0 mph 0.00 in / hr 886 ft 3:40 AM CDT Rapid Fire
MesoWest SEDLIA , Sedalia, MO 95 °F 91 °F - - North  at  - 0.00 in / hr 823 ft 2:15 AM CDT MADIS
MesoWest OTRVLE , Syracuse, MO 79 °F 77 °F - - North  at  - 0.00 in / hr 849 ft 1:40 AM CDT MADIS

Show More Stations Show Fewer Stations